createdAt,value
2022-10-06T00:01:22.197Z,3.80
2022-10-06T00:04:05.844Z,3.83
2022-10-06T00:06:46.895Z,4.20
2022-10-06T00:09:42.103Z,3.50
2022-10-06T00:12:14.644Z,3.80
2022-10-06T00:14:50.738Z,3.60
2022-10-06T00:17:36.293Z,4.20
2022-10-06T00:20:13.206Z,4.10
2022-10-06T00:23:02.559Z,3.63
2022-10-06T00:25:45.412Z,4.30
2022-10-06T00:28:52.325Z,3.95
2022-10-06T00:31:34.999Z,3.80
2022-10-06T00:34:20.227Z,4.18
2022-10-06T00:37:03.314Z,3.90
2022-10-06T00:39:45.244Z,4.15
2022-10-06T00:42:28.366Z,4.25
2022-10-06T00:45:06.465Z,4.97
2022-10-06T00:47:39.134Z,4.53
2022-10-06T00:50:17.465Z,4.25
2022-10-06T00:52:56.191Z,4.30
2022-10-06T00:55:37.352Z,4.53
2022-10-06T00:58:09.887Z,4.43
2022-10-06T01:00:42.034Z,4.03
2022-10-06T01:03:27.986Z,3.63
2022-10-06T01:06:04.570Z,4.85
2022-10-06T01:09:01.310Z,4.57
2022-10-06T01:11:38.069Z,4.07
2022-10-06T01:14:20.207Z,3.97
2022-10-06T01:16:58.428Z,4.63
2022-10-06T01:19:51.689Z,4.15
2022-10-06T01:22:33.506Z,6.10
2022-10-06T01:25:15.236Z,4.88
2022-10-06T01:27:54.029Z,5.35
2022-10-06T01:30:53.069Z,4.47
2022-10-06T01:33:32.973Z,4.15
2022-10-06T01:36:14.300Z,4.18
2022-10-06T01:38:58.023Z,4.00
2022-10-06T01:41:34.263Z,3.85
2022-10-06T01:44:08.387Z,4.28
2022-10-06T01:47:27.472Z,4.35
2022-10-06T01:50:24.192Z,3.90
2022-10-06T01:53:25.984Z,3.83
2022-10-06T01:56:36.095Z,5.00
2022-10-06T01:59:09.426Z,4.40
2022-10-06T02:01:41.351Z,4.32
2022-10-06T02:04:16.199Z,4.45
2022-10-06T02:06:52.224Z,5.20
2022-10-06T02:09:30.025Z,3.58
2022-10-06T02:12:03.398Z,4.30
2022-10-06T02:14:35.703Z,4.20
2022-10-06T02:17:10.803Z,3.75
2022-10-06T02:19:41.606Z,5.05
2022-10-06T02:22:19.812Z,4.80
2022-10-06T02:24:56.775Z,4.70
2022-10-06T02:27:36.712Z,3.90
2022-10-06T02:30:20.373Z,4.63
2022-10-06T02:32:53.399Z,3.42
2022-10-06T02:35:28.753Z,4.72
2022-10-06T02:38:14.121Z,4.05
2022-10-06T02:40:54.747Z,3.88
2022-10-06T02:43:34.200Z,3.42
2022-10-06T02:46:09.505Z,4.50
2022-10-06T02:48:47.527Z,3.90
2022-10-06T02:51:33.210Z,4.00
2022-10-06T02:54:17.895Z,4.20
2022-10-06T02:57:05.998Z,4.30
2022-10-06T02:59:38.765Z,4.70
2022-10-06T03:02:19.434Z,4.28
2022-10-06T03:04:53.915Z,4.40
2022-10-06T03:07:25.586Z,4.40
2022-10-06T03:11:03.089Z,4.63
2022-10-06T03:14:30.524Z,4.47
2022-10-06T03:17:04.040Z,4.80
2022-10-06T03:19:42.931Z,4.60
2022-10-06T03:22:33.789Z,5.00
2022-10-06T03:25:41.287Z,4.90
2022-10-06T03:28:57.416Z,4.50
2022-10-06T03:31:36.342Z,6.30
2022-10-06T03:34:47.231Z,6.47
2022-10-06T03:37:56.060Z,6.68
2022-10-06T03:45:45.069Z,4.70
2022-10-06T03:48:43.641Z,5.07
2022-10-06T03:51:24.347Z,8.00
2022-10-06T03:53:57.462Z,5.45
2022-10-06T04:06:35.942Z,5.95
2022-10-06T04:10:02.524Z,4.45
2022-10-06T04:13:18.211Z,5.97
2022-10-06T04:34:42.829Z,7.63
2022-10-06T04:37:16.807Z,6.60
2022-10-06T04:39:53.749Z,6.60
2022-10-06T04:44:10.917Z,7.35
2022-10-06T04:51:43.418Z,6.45
2022-10-06T04:54:12.731Z,7.25
2022-10-06T04:56:42.390Z,7.00
2022-10-06T04:59:12.177Z,7.22
2022-10-06T05:01:51.130Z,6.05
2022-10-06T05:04:20.181Z,6.43
2022-10-06T05:07:03.572Z,7.10
2022-10-06T05:09:51.442Z,6.15
2022-10-06T05:12:31.018Z,4.88
2022-10-06T05:15:00.790Z,6.63
2022-10-06T05:17:30.072Z,5.90
2022-10-06T05:20:30.698Z,6.03
2022-10-06T05:26:31.738Z,6.38
2022-10-06T05:36:04.823Z,6.25
2022-10-06T05:39:06.384Z,6.50
2022-10-06T06:15:54.822Z,7.50
2022-10-06T06:31:02.441Z,7.53
2022-10-06T06:33:59.380Z,7.18
2022-10-06T06:52:40.501Z,7.03
2022-10-06T07:11:29.854Z,6.00
2022-10-06T07:17:36.106Z,5.95
2022-10-06T07:20:47.442Z,4.60
2022-10-06T07:23:59.101Z,4.32
2022-10-06T07:29:55.259Z,4.07
2022-10-06T07:32:52.117Z,4.03
2022-10-06T08:01:08.006Z,3.50
2022-10-06T08:04:06.670Z,3.55
2022-10-06T08:43:16.758Z,2.85
2022-10-06T08:46:19.940Z,2.85
2022-10-06T08:56:21.931Z,2.55
2022-10-06T09:02:29.654Z,3.20
2022-10-06T09:05:28.193Z,2.50
2022-10-06T09:08:26.489Z,2.55
2022-10-06T09:11:47.759Z,2.60
2022-10-06T09:14:48.911Z,2.88
2022-10-06T09:20:53.195Z,2.90
2022-10-06T09:27:21.014Z,2.25
2022-10-06T09:33:40.623Z,2.05
2022-10-06T09:40:37.516Z,2.20
2022-10-06T09:43:31.468Z,1.98
2022-10-06T09:46:35.081Z,2.20
2022-10-06T09:52:51.041Z,2.50
2022-10-06T09:58:57.447Z,2.78
2022-10-06T10:05:22.492Z,2.50
2022-10-06T10:08:23.832Z,2.40
2022-10-06T10:11:39.828Z,2.55
2022-10-06T10:17:40.080Z,2.30
2022-10-06T10:23:39.267Z,2.50
2022-10-06T10:30:01.620Z,2.83
2022-10-06T10:41:55.186Z,1.70
2022-10-06T10:48:22.648Z,2.80
2022-10-06T10:54:50.189Z,2.42
2022-10-06T11:00:46.139Z,2.30
2022-10-06T11:07:00.936Z,2.20
2022-10-06T11:13:15.121Z,2.67
2022-10-06T11:20:05.694Z,2.20
2022-10-06T11:27:15.081Z,2.28
2022-10-06T11:30:16.553Z,2.47
2022-10-06T11:33:18.320Z,1.73
2022-10-06T11:39:22.819Z,2.42
2022-10-06T11:42:26.849Z,1.98
2022-10-06T11:45:29.963Z,1.90
2022-10-06T11:48:28.651Z,2.00
2022-10-06T11:51:31.299Z,3.08
2022-10-06T11:58:40.733Z,2.28
2022-10-06T12:01:54.997Z,1.77
2022-10-06T12:05:55.825Z,2.40
2022-10-06T12:08:36.433Z,2.72
2022-10-06T12:11:38.716Z,2.35
2022-10-06T12:16:00.076Z,1.80
2022-10-06T12:17:20.120Z,2.45
2022-10-06T12:19:58.376Z,1.95
2022-10-06T12:22:31.186Z,2.05
2022-10-06T12:25:05.662Z,2.30
2022-10-06T12:27:53.006Z,2.10
2022-10-06T12:30:28.831Z,2.13
2022-10-06T12:33:05.593Z,2.40
2022-10-06T12:35:37.208Z,3.70
2022-10-06T12:38:07.133Z,2.10
2022-10-06T12:40:52.486Z,2.20
2022-10-06T12:43:55.108Z,2.25
2022-10-06T12:46:36.070Z,1.92
2022-10-06T12:49:36.861Z,2.22
2022-10-06T12:52:18.492Z,2.40
2022-10-06T12:55:07.691Z,2.53
2022-10-06T12:57:48.204Z,2.40
2022-10-06T13:00:34.640Z,2.35
2022-10-06T13:03:08.767Z,2.33
2022-10-06T13:05:38.225Z,2.30
2022-10-06T13:08:22.495Z,2.88
2022-10-06T13:10:51.799Z,1.98
2022-10-06T13:13:24.574Z,2.17
2022-10-06T13:16:00.423Z,1.95
2022-10-06T13:18:32.829Z,2.22
2022-10-06T13:21:02.352Z,2.60
2022-10-06T13:23:33.932Z,2.17
2022-10-06T13:26:05.148Z,2.50
2022-10-06T13:28:49.098Z,2.03
2022-10-06T13:31:26.775Z,3.50
2022-10-06T13:34:02.038Z,2.53
2022-10-06T13:36:35.011Z,2.00
2022-10-06T13:39:06.193Z,2.60
2022-10-06T13:41:38.676Z,2.53
2022-10-06T13:44:33.467Z,2.15
2022-10-06T13:47:06.108Z,2.35
2022-10-06T13:49:43.080Z,2.30
2022-10-06T13:52:19.073Z,2.45
2022-10-06T13:54:53.154Z,2.45
2022-10-06T13:57:40.087Z,2.30
2022-10-06T14:00:20.627Z,2.60
2022-10-06T14:02:52.181Z,2.80
2022-10-06T14:05:33.166Z,2.88
2022-10-06T14:08:04.445Z,2.42
2022-10-06T14:10:46.959Z,2.42
2022-10-06T14:13:19.764Z,2.53
2022-10-06T14:15:51.732Z,2.08
2022-10-06T14:18:24.499Z,2.72
2022-10-06T14:20:56.528Z,2.38
2022-10-06T14:23:42.650Z,1.80
2022-10-06T14:26:13.882Z,2.35
2022-10-06T14:28:48.114Z,2.13
2022-10-06T14:31:17.381Z,2.38
2022-10-06T14:33:47.998Z,2.40
2022-10-06T14:36:22.731Z,2.15
2022-10-06T14:38:54.768Z,1.85
2022-10-06T14:41:27.702Z,2.15
2022-10-06T14:43:58.039Z,2.15
2022-10-06T14:46:27.358Z,3.78
2022-10-06T14:48:57.356Z,2.25
2022-10-06T14:51:30.993Z,2.20
2022-10-06T14:54:03.386Z,2.25
2022-10-06T14:56:34.461Z,1.95
2022-10-06T14:59:06.446Z,2.10
2022-10-06T15:01:39.825Z,2.70
2022-10-06T15:04:12.187Z,2.38
2022-10-06T15:07:01.082Z,1.67
2022-10-06T15:09:31.163Z,2.80
2022-10-06T15:12:01.072Z,3.00
2022-10-06T15:14:30.553Z,2.38
2022-10-06T15:17:00.502Z,2.20
2022-10-06T15:19:30.611Z,2.90
2022-10-06T15:22:01.301Z,2.63
2022-10-06T15:24:30.351Z,2.20
2022-10-06T15:27:23.988Z,2.65
2022-10-06T15:29:54.259Z,2.25
2022-10-06T15:32:26.745Z,2.40
2022-10-06T15:34:56.490Z,2.28
2022-10-06T15:37:29.112Z,2.33
2022-10-06T15:40:11.875Z,2.15
2022-10-06T15:42:44.134Z,2.20
2022-10-06T15:45:13.198Z,2.88
2022-10-06T15:47:42.490Z,2.08
2022-10-06T15:50:16.469Z,2.28
2022-10-06T15:52:49.246Z,2.60
2022-10-06T15:55:18.165Z,2.08
2022-10-06T15:57:47.108Z,2.63
2022-10-06T16:00:16.761Z,2.88
2022-10-06T16:02:45.892Z,2.55
2022-10-06T16:05:31.836Z,2.60
2022-10-06T16:08:02.358Z,2.50
2022-10-06T16:10:31.334Z,1.83
2022-10-06T16:13:00.423Z,2.28
2022-10-06T16:15:29.561Z,3.30
2022-10-06T16:17:58.624Z,7.90
2022-10-06T16:20:27.738Z,4.80
2022-10-06T16:22:56.745Z,2.53
2022-10-06T16:25:27.231Z,3.05
2022-10-06T16:27:56.399Z,2.13
2022-10-06T16:30:25.489Z,2.90
2022-10-06T16:33:01.635Z,2.67
2022-10-06T16:35:30.726Z,4.40
2022-10-06T16:37:59.834Z,4.20
2022-10-06T16:40:30.110Z,4.20
2022-10-06T16:42:59.075Z,4.22
2022-10-06T16:45:28.125Z,4.80
2022-10-06T16:47:57.171Z,4.40
2022-10-06T16:50:26.131Z,3.58
2022-10-06T16:52:55.274Z,3.42
2022-10-06T16:55:24.314Z,5.30
2022-10-06T16:57:54.862Z,4.35
2022-10-06T17:00:25.999Z,3.63
2022-10-06T17:02:55.555Z,4.95
2022-10-06T17:05:25.007Z,3.90
2022-10-06T17:07:58.942Z,5.45
2022-10-06T17:10:28.457Z,2.83
2022-10-06T17:12:58.948Z,3.30
2022-10-06T17:15:32.745Z,3.25
2022-10-06T17:18:02.924Z,3.72
2022-10-06T17:20:32.192Z,3.05
2022-10-06T17:23:01.282Z,3.67
2022-10-06T17:25:30.341Z,3.60
2022-10-06T17:28:00.707Z,4.22
2022-10-06T17:30:33.027Z,7.18
2022-10-06T17:33:04.426Z,5.30
2022-10-06T17:35:37.986Z,3.88
2022-10-06T17:38:09.461Z,3.30
2022-10-06T17:40:45.130Z,3.55
2022-10-06T17:43:16.154Z,3.80
2022-10-06T17:45:46.251Z,4.13
2022-10-06T17:48:15.293Z,3.95
2022-10-06T17:50:44.556Z,3.10
2022-10-06T17:53:14.608Z,3.25
2022-10-06T17:55:43.855Z,3.92
2022-10-06T17:58:17.825Z,3.72
2022-10-06T18:00:50.102Z,4.03
2022-10-06T18:03:26.333Z,3.58
2022-10-06T18:05:58.859Z,3.40
2022-10-06T18:08:28.226Z,3.40
2022-10-06T18:11:15.106Z,4.28
2022-10-06T18:13:44.913Z,4.65
2022-10-06T18:16:19.084Z,3.65
2022-10-06T18:18:56.185Z,3.58
2022-10-06T18:21:27.188Z,4.10
2022-10-06T18:23:56.638Z,4.95
2022-10-06T18:26:28.232Z,4.05
2022-10-06T18:29:00.678Z,7.18
2022-10-06T18:31:31.150Z,4.90
2022-10-06T18:35:41.182Z,3.78
2022-10-06T18:37:07.983Z,4.40
2022-10-06T18:39:37.325Z,4.30
2022-10-06T18:42:08.414Z,4.60
2022-10-06T18:44:59.839Z,4.03
2022-10-06T18:47:47.694Z,4.30
2022-10-06T18:50:16.693Z,4.25
2022-10-06T18:52:49.600Z,4.35
2022-10-06T18:55:20.967Z,4.65
2022-10-06T18:57:50.537Z,4.22
2022-10-06T19:00:21.952Z,3.88
2022-10-06T19:03:10.075Z,4.30
2022-10-06T19:05:39.180Z,4.00
2022-10-06T19:08:09.328Z,3.90
2022-10-06T19:10:58.399Z,3.90
2022-10-06T19:13:27.418Z,3.42
2022-10-06T19:16:00.075Z,3.85
2022-10-06T19:18:37.985Z,4.32
2022-10-06T19:21:09.850Z,5.15
2022-10-06T19:23:40.302Z,7.80
2022-10-06T19:26:12.569Z,7.25
2022-10-06T19:28:41.948Z,6.13
2022-10-06T19:31:14.912Z,4.97
2022-10-06T19:33:45.355Z,5.85
2022-10-06T19:36:16.877Z,6.95
2022-10-06T19:38:46.818Z,7.03
2022-10-06T19:41:33.574Z,6.85
2022-10-06T19:44:04.283Z,6.30
2022-10-06T19:46:33.363Z,6.88
2022-10-06T19:49:05.771Z,5.60
2022-10-06T19:51:40.298Z,6.28
2022-10-06T19:54:11.454Z,4.80
2022-10-06T19:56:41.656Z,5.65
2022-10-06T19:59:16.052Z,5.65
2022-10-06T20:01:45.892Z,6.22
2022-10-06T20:04:22.800Z,4.75
2022-10-06T20:06:52.651Z,4.90
2022-10-06T20:09:24.191Z,5.55
2022-10-06T20:11:53.307Z,5.80
2022-10-06T20:14:24.352Z,5.00
2022-10-06T20:16:56.412Z,5.35
2022-10-06T20:19:27.211Z,5.00
2022-10-06T20:21:56.329Z,5.78
2022-10-06T20:24:26.001Z,5.70
2022-10-06T20:26:55.818Z,6.63
2022-10-06T20:29:28.160Z,7.20
2022-10-06T20:31:58.700Z,5.43
2022-10-06T20:34:32.078Z,4.78
2022-10-06T20:37:04.630Z,4.97
2022-10-06T20:39:55.275Z,5.22
2022-10-06T20:42:25.718Z,5.68
2022-10-06T20:44:54.820Z,6.82
2022-10-06T20:47:24.193Z,5.78
2022-10-06T20:49:55.497Z,4.38
2022-10-06T20:52:24.775Z,4.00
2022-10-06T20:54:53.731Z,5.68
2022-10-06T20:57:23.054Z,4.35
2022-10-06T20:59:52.506Z,9.07
2022-10-06T21:02:21.662Z,9.05
2022-10-06T21:04:50.629Z,5.97
2022-10-06T21:07:21.640Z,4.63
2022-10-06T21:09:55.834Z,4.55
2022-10-06T21:12:24.790Z,4.85
2022-10-06T21:14:53.710Z,6.10
2022-10-06T21:17:22.744Z,5.32
2022-10-06T21:19:51.727Z,5.28
2022-10-06T21:22:22.010Z,5.70
2022-10-06T21:24:50.961Z,6.25
2022-10-06T21:27:21.062Z,4.75
2022-10-06T21:29:50.300Z,4.50
2022-10-06T21:32:19.522Z,5.72
2022-10-06T21:34:48.494Z,5.32
2022-10-06T21:37:17.437Z,5.15
2022-10-06T21:39:47.733Z,5.45
2022-10-06T21:42:16.784Z,5.32
2022-10-06T21:44:45.877Z,5.57
2022-10-06T21:47:24.144Z,5.25
2022-10-06T21:49:53.296Z,5.25
2022-10-06T21:52:22.526Z,5.88
2022-10-06T21:54:52.850Z,6.30
2022-10-06T21:57:21.852Z,6.05
2022-10-06T21:59:50.975Z,6.40
2022-10-06T22:02:26.527Z,5.85
2022-10-06T22:04:55.697Z,6.47
2022-10-06T22:07:26.211Z,5.82
2022-10-06T22:10:02.200Z,5.40
2022-10-06T22:12:31.332Z,6.15
2022-10-06T22:15:08.617Z,6.10
2022-10-06T22:17:47.029Z,6.20
2022-10-06T22:23:22.833Z,5.38
2022-10-06T22:26:03.087Z,5.60
2022-10-06T22:28:32.206Z,5.32
2022-10-06T22:31:06.992Z,6.55
2022-10-06T22:33:40.943Z,4.60
2022-10-06T22:36:13.804Z,3.90
2022-10-06T22:38:47.236Z,4.95
2022-10-06T22:41:18.575Z,5.40
2022-10-06T22:43:47.585Z,4.97
2022-10-06T22:46:16.858Z,4.55
2022-10-06T22:48:46.007Z,5.15
2022-10-06T22:51:15.555Z,3.97
2022-10-06T22:53:44.608Z,4.85
2022-10-06T22:56:14.165Z,5.28
2022-10-06T22:58:45.265Z,4.85
2022-10-06T23:01:18.179Z,4.85
2022-10-06T23:03:48.157Z,4.03
2022-10-06T23:06:20.062Z,4.40
2022-10-06T23:08:49.399Z,4.90
2022-10-06T23:11:23.054Z,4.30
2022-10-06T23:13:53.552Z,4.90
2022-10-06T23:16:23.086Z,4.10
2022-10-06T23:18:52.352Z,4.45
2022-10-06T23:21:24.302Z,3.90
2022-10-06T23:23:55.771Z,5.70
2022-10-06T23:26:25.353Z,4.45
2022-10-06T23:28:58.524Z,4.63
2022-10-06T23:31:29.560Z,4.70
2022-10-06T23:33:58.925Z,4.35
2022-10-06T23:36:30.667Z,4.35
2022-10-06T23:39:00.855Z,5.40
2022-10-06T23:41:29.784Z,4.63
2022-10-06T23:44:00.428Z,4.88
2022-10-06T23:46:29.456Z,4.28
2022-10-06T23:48:58.595Z,4.55
2022-10-06T23:51:27.751Z,4.90
2022-10-06T23:53:56.767Z,4.47
2022-10-06T23:56:25.881Z,4.55
2022-10-06T23:58:54.932Z,3.85
